De Winton South Calgary Airport

CEH4 · 艾伯塔, 加拿大

罗盘
风向 的 风向 350° De Winton South Calgary Airport 10/28
风: 3 kt, 1 beaufort

2 kt

2 kt
改变
0 1.000 2.000 3.000 4.000 5.000
没有云
METAR CYYC 041200Z 35003KT 15SM SKC 10/03 A3008 RMK SLP191 DENSITY ALT 3700FT

METAR De Winton South Calgary Airport - CEH4

De Winton South Calgary Airport是De Winton,加拿大中的小机场。 该机场有2条跑道: 10/28 和 16/34. 该领域的国际民航组织标志是CEH4.

这份报告是针对2022年10月4日 06:00, 当地时间在Calgary International Airport进行的。

机场观察

风向为350°,速度为3 kt。

可见度为15 mi。

有没有云。 没有观察到天花板。

温度为10 °C,阵风为8 °C。 露点为3 °C,相对湿度为62%。 海平面上的气压为30,08 inHg (QNH)。

白天

今天,太阳从07:41升起,在19:06降落。 这适用于De Winton South Calgary Airport,世界夏令时可能有所不同。 当地时间与世界标准时间之间的时差为-6 小时。 夏令时目前正在进行中。

公司介绍

我们没有关于这个机场的公司信息。

体会

到Vliegles.nl去找飞行课程,跳伞和其他飞行体验。 浏览页面,了解De Winton South Calgary Airport附近所有可用的活动。 你也可以使用搜索功能来寻找你所在地附近的特定飞行课程、跳伞或其他飞行体验。

跑道

Id 标题 侧风 逆风 侧风 %
10/28 120°-300° 2 kt 2 kt 77 %
16/34 179°-359° 3 kt 16 %

逆风成分最大的方向会被突出显示,并用于横风计算。 这并不一定意味着这个方向在使用。

乌云

- SKC 没有云

温度 & 天气

温度 10 °C
露点 3 °C
相对湿度 62%
风寒 8 °C
Kp-index 1 (0-9)

评论

SLP191海平面压力为30,09 inHg (30,09 inHg)
DENSITY ALT 3700FT

白天

日出
07:42 (52m)
中午
13:24
日落
19:07

小工具

你想在你的网站上有一个关于De Winton South Calgary Airport的当前航空天气(METAR)的小部件吗?

</> 显示HTML代码

我们和第三方通过cookies跟踪您在我们网站上的上网行为。如果您继续,我们认为您同意我们的cookie政策。 了解更多